Chandler, OK

00:05 CDT le 23 octobre 2014 (GMT -0500)
Guthrie Municipal | Change Station
CLOSE
Current Station
Aéroport
Location: Guthrie,
Altitude: 1066 ft
Stations météo à proximité

Alt. 1066 ft 35.85 °N, 97.41 °W | Updated 12 minutes ago

Pluie
Pluie
62 ° F
Paraît 62 ° F
N
0
Vent Variable Vent de Nord

Aujourd'hui
Haut(e) -- | Bas -- ° F
--% Risque de précip.
Hier
Haut(e) -- | Bas -- ° F
Precip. -- pouce
7:41 AM 6:41 PM
Lune descendante, 1% visible
Pression 30.10 pouce
Visibilité 10.0 Miles terrestres
Nuages Nuageux 6000 ft
Nuageux 8000 ft
Couvert 11000 ft
Point de rosée 61 ° F
Humidité 96%
Précipitations 0.22 pouce
Profondeur de la couche neigeuse Non disponible.
UV 0 sur 12
Pollen 5.50 sur 12
Qualité de l'air Non disponible.
Flu Activity No Activity
METAR KGOK 230453Z AUTO 00000KT 10SM BKN060 BKN080 OVC110 17/16 A3012 RMK AO2 RAE28 SLP193 P0001 T01670161

More Conditions Fewer Conditions

Pression 30.10 pouce
Visibilité 10.0 Miles terrestres
Nuages Nuageux 6000 ft
Nuageux 8000 ft
Couvert 11000 ft
Point de rosée 61 ° F
Humidité 96%
Précipitations 0.22 pouce
Profondeur de la couche neigeuse Non disponible.
UV 0 sur 12
Pollen 5.50 sur 12
Qualité de l'air Non disponible.
Flu Activity No Activity
METAR KGOK 230453Z AUTO 00000KT 10SM BKN060 BKN080 OVC110 17/16 A3012 RMK AO2 RAE28 SLP193 P0001 T01670161

More Conditions Fewer Conditions

10-Day Weather Forecast

Almanac

Astronomie

Oct. 23, 2014 Lever Coucher
Temps réel 07:41 CDT 18:41 CDT
Crépuscule civil 07:15 CDT 19:07 CDT
Crépuscule nautique 06:45 CDT 19:37 CDT
Crépuscule astronomique 06:15 CDT 20:07 CDT
Lune 07:22 CDT 18:44 CDT
Durée de lumière visible 11h 52m
Longueur du jour
11h 00m
Tomorrow will be 2m 5s shorter.
Lune descendante, 1% of the Moon is Illuminated
Aujourd'hui
Lune descendante
Oct 23
Nouveau
Oct 30
Premier quartier
Nov 6
Pleine lune
Nov 14
Dernier quartier

Extrêmes aujourd'hui

State Highs State Lows

Community

WunderPhotos

Upload Photos

1,764,169 Photos téléchargées !

Nearby

Épaisseur de neige

Station Depth Altitude
Pas de nouvelles chutes de neige

Activité sismique

Ville Distance Mag. Time & Date
Luther, Oklahoma 19 Miles terrestres 2.5 22:36 CDT
2014-10-22
Crescent, Oklahoma 51 Miles terrestres 2.7 21:58 CDT
2014-10-22
Anthony, Kansas 107 Miles terrestres 3.3 18:48 CDT
2014-10-22
Langston, Oklahoma 32 Miles terrestres 2.9 10:03 CDT
2014-10-22
Minimum magnitude displayed is 2.5.

Températures des eaux côtières

Lieu Température
Aucun rapport de station

Stations météo à proximité